createdAt,value
2023-04-29T00:17:23.759Z,19.47
2023-04-29T00:20:00.425Z,19.27
2023-04-29T00:23:01.941Z,19.13
2023-04-29T00:25:30.514Z,19.06
2023-04-29T00:28:02.896Z,19.06
2023-04-29T00:30:34.420Z,19.02
2023-04-29T00:33:03.783Z,18.86
2023-04-29T00:35:42.202Z,18.76
2023-04-29T00:38:10.840Z,18.75
2023-04-29T00:41:30.421Z,18.72
2023-04-29T00:44:02.407Z,18.69
2023-04-29T00:50:05.421Z,18.50
2023-04-29T00:59:10.595Z,18.22
2023-04-29T01:02:11.759Z,18.23
2023-04-29T01:09:12.441Z,18.21
2023-04-29T01:12:32.170Z,18.11
2023-04-29T01:15:16.158Z,18.11
2023-04-29T01:18:12.519Z,18.06
2023-04-29T01:39:11.909Z,17.84
2023-04-29T01:42:02.035Z,17.79
2023-04-29T01:44:37.087Z,17.70
2023-04-29T01:47:07.414Z,17.60
2023-04-29T01:50:07.425Z,17.51
2023-04-29T01:52:35.702Z,17.43
2023-04-29T01:55:04.804Z,17.31
2023-04-29T01:57:33.344Z,17.19
2023-04-29T02:00:02.967Z,17.10
2023-04-29T02:02:31.426Z,17.10
2023-04-29T02:04:59.850Z,17.06
2023-04-29T02:07:28.458Z,17.03
2023-04-29T02:09:56.785Z,17.02
2023-04-29T02:12:25.291Z,17.03
2023-04-29T02:14:56.700Z,16.97
2023-04-29T02:17:25.236Z,16.93
2023-04-29T02:19:55.977Z,16.95
2023-04-29T02:22:24.167Z,16.97
2023-04-29T02:24:52.892Z,16.95
2023-04-29T02:27:21.240Z,16.92
2023-04-29T02:29:50.044Z,16.88
2023-04-29T02:32:20.962Z,16.94
2023-04-29T02:34:50.197Z,16.89
2023-04-29T02:37:18.492Z,16.85
2023-04-29T02:39:46.893Z,16.85
2023-04-29T02:42:15.458Z,16.82
2023-04-29T02:44:43.828Z,16.74
2023-04-29T02:47:12.020Z,16.71
2023-04-29T02:49:40.362Z,16.69
2023-04-29T02:52:08.608Z,16.64
2023-04-29T02:54:37.730Z,16.61
2023-04-29T02:57:06.020Z,16.60
2023-04-29T02:59:34.518Z,16.64
2023-04-29T03:02:02.991Z,16.60
2023-04-29T03:04:31.523Z,16.55
2023-04-29T03:06:59.907Z,16.53
2023-04-29T03:09:28.728Z,16.50
2023-04-29T03:11:57.026Z,16.49
2023-04-29T03:14:25.388Z,16.43
2023-04-29T03:16:53.866Z,16.35
2023-04-29T03:19:22.832Z,16.32
2023-04-29T03:21:53.385Z,16.26
2023-04-29T03:24:22.370Z,16.21
2023-04-29T03:26:50.634Z,16.14
2023-04-29T03:29:18.928Z,16.09
2023-04-29T03:31:47.861Z,16.02
2023-04-29T03:34:16.254Z,15.98
2023-04-29T03:36:44.535Z,15.92
2023-04-29T03:39:16.063Z,15.88
2023-04-29T03:41:44.583Z,15.84
2023-04-29T03:44:13.373Z,15.81
2023-04-29T03:46:41.709Z,15.77
2023-04-29T03:49:10.310Z,15.74
2023-04-29T03:51:38.848Z,15.71
2023-04-29T03:54:07.424Z,15.69
2023-04-29T03:56:35.671Z,15.66
2023-04-29T03:59:04.502Z,15.66
2023-04-29T04:01:33.064Z,15.63
2023-04-29T04:04:01.861Z,15.58
2023-04-29T04:06:30.337Z,15.52
2023-04-29T04:09:00.344Z,15.47
2023-04-29T04:11:28.760Z,15.34
2023-04-29T04:13:57.022Z,15.24
2023-04-29T04:16:25.288Z,15.19
2023-04-29T04:18:54.106Z,15.14
2023-04-29T04:21:22.386Z,15.06
2023-04-29T04:23:50.642Z,15.02
2023-04-29T04:26:19.486Z,15.01
2023-04-29T04:28:48.092Z,14.95
2023-04-29T04:31:16.389Z,14.90
2023-04-29T04:33:44.661Z,14.87
2023-04-29T04:36:12.894Z,14.84
2023-04-29T04:38:41.254Z,14.84
2023-04-29T04:41:09.884Z,14.81
2023-04-29T04:43:38.152Z,14.75
2023-04-29T04:46:16.902Z,14.71
2023-04-29T04:48:46.077Z,14.63
2023-04-29T04:51:15.941Z,14.63
2023-04-29T04:53:44.312Z,14.61
2023-04-29T04:56:13.156Z,14.54
2023-04-29T04:58:41.610Z,14.53
2023-04-29T05:01:10.504Z,14.53
2023-04-29T05:03:39.148Z,14.45
2023-04-29T05:06:07.898Z,14.43
2023-04-29T05:08:36.240Z,14.43
2023-04-29T05:11:04.723Z,14.40
2023-04-29T05:13:35.316Z,14.39
2023-04-29T05:16:07.201Z,14.38
2023-04-29T05:18:35.687Z,14.38
2023-04-29T05:21:03.941Z,14.40
2023-04-29T05:23:32.187Z,14.42
2023-04-29T05:26:00.441Z,14.43
2023-04-29T05:28:28.708Z,14.40
2023-04-29T05:30:57.078Z,14.38
2023-04-29T05:33:25.863Z,14.36
2023-04-29T05:35:54.128Z,14.36
2023-04-29T05:38:22.444Z,14.35
2023-04-29T05:40:52.122Z,14.34
2023-04-29T05:43:20.372Z,14.35
2023-04-29T05:45:49.369Z,14.32
2023-04-29T05:48:17.973Z,14.28
2023-04-29T05:50:46.643Z,14.28
2023-04-29T05:53:15.145Z,14.24
2023-04-29T05:55:45.838Z,14.20
2023-04-29T05:58:15.924Z,14.16
2023-04-29T06:00:44.822Z,14.13
2023-04-29T06:03:13.461Z,14.13
2023-04-29T06:05:42.888Z,14.12
2023-04-29T06:08:11.692Z,14.11
2023-04-29T06:10:39.905Z,14.11
2023-04-29T06:13:08.191Z,14.09
2023-04-29T06:15:36.668Z,14.08
2023-04-29T06:18:05.165Z,14.09
2023-04-29T06:20:34.902Z,14.10
2023-04-29T06:23:04.514Z,14.07
2023-04-29T06:25:33.308Z,14.06
2023-04-29T06:28:01.919Z,14.08
2023-04-29T06:30:30.240Z,14.08
2023-04-29T06:32:58.805Z,14.06
2023-04-29T06:35:27.213Z,14.02
2023-04-29T06:37:57.379Z,14.00
2023-04-29T06:40:25.793Z,14.02
2023-04-29T06:42:54.218Z,14.02
2023-04-29T06:45:22.632Z,13.99
2023-04-29T06:47:51.192Z,13.98
2023-04-29T06:50:19.723Z,13.97
2023-04-29T06:52:48.055Z,13.94
2023-04-29T06:55:16.663Z,13.93
2023-04-29T06:57:45.015Z,13.91
2023-04-29T07:00:13.824Z,13.91
2023-04-29T07:02:42.224Z,13.90
2023-04-29T07:05:10.992Z,13.88
2023-04-29T07:07:39.337Z,13.87
2023-04-29T07:10:08.569Z,13.85
2023-04-29T07:12:38.120Z,13.82
2023-04-29T07:15:06.785Z,13.79
2023-04-29T07:17:35.195Z,13.78
2023-04-29T07:20:05.041Z,13.77
2023-04-29T07:22:33.324Z,13.77
2023-04-29T07:25:02.281Z,13.76
2023-04-29T07:27:30.614Z,13.72
2023-04-29T07:30:02.187Z,13.69
2023-04-29T07:32:32.610Z,13.65
2023-04-29T07:35:01.281Z,13.65
2023-04-29T07:37:29.641Z,13.65
2023-04-29T07:39:57.850Z,13.63
2023-04-29T07:42:26.869Z,13.58
2023-04-29T07:44:55.301Z,13.54
2023-04-29T07:47:23.770Z,13.53
2023-04-29T07:49:52.400Z,13.48
2023-04-29T07:52:20.724Z,13.44
2023-04-29T07:54:49.022Z,13.42
2023-04-29T07:57:17.464Z,13.42
2023-04-29T07:59:45.801Z,13.38
2023-04-29T08:02:14.928Z,13.32
2023-04-29T08:04:43.964Z,13.26
2023-04-29T08:07:13.695Z,13.25
2023-04-29T08:09:41.992Z,13.20
2023-04-29T08:12:10.665Z,13.18
2023-04-29T08:14:38.921Z,13.19
2023-04-29T08:17:08.301Z,13.19
2023-04-29T08:19:36.774Z,13.18
2023-04-29T08:22:05.136Z,13.18
2023-04-29T08:24:34.967Z,13.18
2023-04-29T08:27:04.427Z,13.19
2023-04-29T08:29:36.134Z,13.19
2023-04-29T08:32:04.637Z,13.22
2023-04-29T08:34:37.026Z,13.23
2023-04-29T08:37:05.271Z,13.21
2023-04-29T08:39:33.482Z,13.21
2023-04-29T08:42:08.756Z,13.24
2023-04-29T08:44:37.857Z,13.24
2023-04-29T08:47:07.186Z,13.24
2023-04-29T08:49:35.567Z,13.25
2023-04-29T08:52:05.342Z,13.26
2023-04-29T08:54:34.022Z,13.28
2023-04-29T08:57:03.660Z,13.28
2023-04-29T08:59:32.405Z,13.29
2023-04-29T09:02:01.823Z,13.30
2023-04-29T09:05:11.939Z,13.31
2023-04-29T09:07:40.918Z,13.27
2023-04-29T09:10:10.550Z,13.27
2023-04-29T09:12:39.194Z,13.26
2023-04-29T09:15:08.131Z,13.25
2023-04-29T09:17:47.225Z,13.28
2023-04-29T09:20:21.137Z,13.28
2023-04-29T09:22:51.494Z,13.28
2023-04-29T09:25:20.198Z,13.28
2023-04-29T09:27:48.609Z,13.29
2023-04-29T09:30:17.733Z,13.26
2023-04-29T09:32:46.583Z,13.27
2023-04-29T09:35:28.261Z,13.28
2023-04-29T09:38:10.928Z,13.27
2023-04-29T09:40:50.701Z,13.26
2023-04-29T09:43:27.094Z,13.26
2023-04-29T09:45:56.259Z,13.27
2023-04-29T09:48:34.579Z,13.25
2023-04-29T09:51:04.371Z,13.22
2023-04-29T09:53:33.390Z,13.20
2023-04-29T09:56:03.971Z,13.17
2023-04-29T09:58:41.039Z,13.17
2023-04-29T10:01:09.665Z,13.17
2023-04-29T10:03:39.836Z,13.19
2023-04-29T10:06:09.948Z,13.21
2023-04-29T10:08:38.650Z,13.17
2023-04-29T10:11:07.187Z,13.12
2023-04-29T10:13:39.196Z,13.05
2023-04-29T10:16:32.742Z,13.00
2023-04-29T10:19:05.079Z,12.93
2023-04-29T10:21:33.503Z,12.90
2023-04-29T10:24:03.654Z,12.89
2023-04-29T10:26:32.880Z,12.91
2023-04-29T10:29:01.896Z,12.92
2023-04-29T10:31:33.238Z,12.93
2023-04-29T10:34:02.629Z,12.89
2023-04-29T10:36:33.015Z,12.89
2023-04-29T10:39:04.824Z,12.87
2023-04-29T10:41:47.925Z,12.93
2023-04-29T10:44:16.752Z,12.88
2023-04-29T10:46:45.124Z,12.86
2023-04-29T10:49:14.024Z,12.86
2023-04-29T10:51:44.031Z,12.89
2023-04-29T10:54:18.239Z,12.91
2023-04-29T10:56:51.467Z,12.88
2023-04-29T10:59:43.877Z,12.85
2023-04-29T11:02:12.799Z,12.83
2023-04-29T11:05:13.285Z,12.89
2023-04-29T11:07:42.622Z,12.84
2023-04-29T11:10:11.247Z,12.84
2023-04-29T11:12:39.468Z,12.84
2023-04-29T11:15:11.995Z,12.86
2023-04-29T11:17:40.454Z,12.89
2023-04-29T11:20:15.033Z,12.91
2023-04-29T11:22:52.178Z,12.92
2023-04-29T11:25:20.498Z,12.99
2023-04-29T11:27:50.797Z,13.13
2023-04-29T11:30:20.990Z,13.15
2023-04-29T11:32:51.851Z,13.16
2023-04-29T11:35:22.984Z,13.22
2023-04-29T11:37:51.268Z,13.27
2023-04-29T11:40:19.550Z,13.23
2023-04-29T11:42:50.441Z,13.19
2023-04-29T11:45:19.861Z,13.14
2023-04-29T11:47:49.588Z,13.19
2023-04-29T11:50:20.934Z,13.19
2023-04-29T11:52:49.275Z,13.13
2023-04-29T11:55:17.684Z,13.16
2023-04-29T11:57:46.447Z,13.20
2023-04-29T12:00:15.468Z,13.21
2023-04-29T12:02:48.180Z,13.26
2023-04-29T12:05:17.818Z,13.27
2023-04-29T12:07:46.538Z,13.26
2023-04-29T12:10:14.955Z,13.24
2023-04-29T12:12:44.767Z,13.20
2023-04-29T12:15:14.019Z,13.14
2023-04-29T12:17:43.792Z,13.09
2023-04-29T12:20:13.277Z,13.07
2023-04-29T12:22:44.840Z,13.07
2023-04-29T12:25:13.454Z,13.04
2023-04-29T12:27:45.287Z,13.01
2023-04-29T12:30:13.713Z,13.00
2023-04-29T12:32:42.611Z,13.04
2023-04-29T12:35:19.932Z,13.22
2023-04-29T12:37:51.963Z,13.24
2023-04-29T12:40:21.284Z,13.35
2023-04-29T12:42:49.640Z,13.47
2023-04-29T12:45:35.640Z,13.62
2023-04-29T12:48:09.111Z,13.70
2023-04-29T12:50:41.782Z,13.75
2023-04-29T12:53:10.793Z,13.81
2023-04-29T12:55:40.116Z,13.84
2023-04-29T12:58:10.131Z,13.87
2023-04-29T13:00:38.935Z,13.66
2023-04-29T13:06:23.603Z,13.05
2023-04-29T13:09:05.863Z,12.85
2023-04-29T13:11:35.021Z,12.64
2023-04-29T13:14:03.997Z,12.48
2023-04-29T13:16:40.896Z,12.38
2023-04-29T13:27:06.903Z,12.09
2023-04-29T13:29:38.137Z,12.16
2023-04-29T13:32:06.907Z,12.19
2023-04-29T13:44:14.065Z,12.12
2023-04-29T13:47:12.347Z,12.14
2023-04-29T14:07:04.033Z,12.00
2023-04-29T14:42:19.870Z,11.85
2023-04-29T14:48:08.198Z,11.85
2023-04-29T14:50:37.843Z,11.90
2023-04-29T15:01:37.739Z,12.06
2023-04-29T15:08:39.327Z,12.11
2023-04-29T15:12:11.231Z,12.10
2023-04-29T15:35:13.624Z,12.34
2023-04-29T15:38:19.809Z,12.36
2023-04-29T15:41:13.748Z,12.41
2023-04-29T15:44:19.646Z,12.47
2023-04-29T15:54:17.245Z,12.92
2023-04-29T16:04:13.918Z,13.02
2023-04-29T16:06:51.736Z,13.15
2023-04-29T16:37:22.709Z,14.60
2023-04-29T16:40:05.523Z,14.83
2023-04-29T16:42:40.383Z,14.92
2023-04-29T16:45:09.599Z,14.94
2023-04-29T16:50:31.860Z,15.13
2023-04-29T16:53:08.927Z,15.42
2023-04-29T16:55:40.095Z,15.61
2023-04-29T16:58:11.904Z,15.74
2023-04-29T17:00:51.669Z,15.78
2023-04-29T17:03:24.864Z,16.06
2023-04-29T17:06:07.042Z,16.16
2023-04-29T17:08:42.003Z,16.28
2023-04-29T17:11:11.241Z,16.51
2023-04-29T17:17:09.358Z,16.43
2023-04-29T17:20:08.158Z,16.55
2023-04-29T17:23:10.014Z,16.69
2023-04-29T17:26:15.247Z,16.81
2023-04-29T17:28:43.774Z,16.92
2023-04-29T17:37:36.436Z,17.37
2023-04-29T17:40:13.798Z,17.38
2023-04-29T17:43:14.635Z,17.33
2023-04-29T17:46:12.406Z,17.22
2023-04-29T17:49:17.092Z,17.35
2023-04-29T17:54:25.705Z,17.35
2023-04-29T18:01:43.513Z,17.67
2023-04-29T18:04:19.158Z,17.64
2023-04-29T18:07:19.930Z,17.64
2023-04-29T18:10:06.866Z,17.67
2023-04-29T18:13:24.086Z,17.65
2023-04-29T18:15:44.709Z,17.64
2023-04-29T18:18:24.508Z,17.64
2023-04-29T18:23:52.235Z,17.71
2023-04-29T18:26:21.696Z,17.70
2023-04-29T18:29:21.953Z,17.66
2023-04-29T18:35:20.826Z,17.60
2023-04-29T18:42:13.722Z,17.63
2023-04-29T18:47:44.540Z,17.62
2023-04-29T18:50:18.799Z,17.66
2023-04-29T18:52:47.277Z,17.78
2023-04-29T18:55:20.072Z,17.81
2023-04-29T19:30:05.293Z,18.29
2023-04-29T20:32:32.197Z,19.03
2023-04-29T20:38:51.413Z,19.08
2023-04-29T20:48:50.622Z,18.98
2023-04-29T20:51:50.275Z,18.96
2023-04-29T20:54:24.098Z,19.02
2023-04-29T20:56:55.823Z,19.06
2023-04-29T20:59:55.123Z,19.06
2023-04-29T21:03:56.015Z,19.01
2023-04-29T21:09:58.515Z,18.82
2023-04-29T21:16:52.542Z,18.82
2023-04-29T21:19:58.683Z,18.81
2023-04-29T21:27:20.932Z,18.84
2023-04-29T21:33:55.379Z,18.96
2023-04-29T21:39:30.595Z,19.13
2023-04-29T21:42:03.492Z,19.12
2023-04-29T21:44:34.822Z,19.08
2023-04-29T21:47:36.278Z,19.05
2023-04-29T21:50:59.522Z,19.08
2023-04-29T21:53:52.638Z,19.03
2023-04-29T21:56:58.754Z,19.04
